Time;durP1;ratioP1;P1;durP2;ratioP2;P2;SDS_P1;SDS_P2;PMS_P1;PMS_P2;Temp;Humidity;BMP_temperature;BMP_pressure;BME280_temperature;BME280_humidity;BME280_pressure;Samples;Min_cycle;Max_cycle;Signal;HPM_P1;HPM_P2
2023/11/28 00:00:14;;;;;;;7.37;4.60;;;;;;;;;;4959623;28;20462;-90
2023/11/28 00:02:40;;;;;;;8.17;5.20;;;;;;;;;;4973420;28;20062;-82
2023/11/28 00:05:08;;;;;;;9.10;5.43;;;;;;;;;;4975801;28;20031;-87
2023/11/28 00:07:34;;;;;;;7.47;5.20;;;;;;;;;;4959659;28;20039;-87
2023/11/28 00:10:01;;;;;;;12.37;6.00;;;;;;;;;;4959771;28;20126;-89
2023/11/28 00:12:27;;;;;;;15.20;7.83;;;;;;;;;;4959654;28;20110;-80
2023/11/28 00:14:53;;;;;;;15.57;7.90;;;;;;;;;;4960143;28;20049;-90
2023/11/28 00:17:19;;;;;;;17.53;9.53;;;;;;;;;;4959592;28;20033;-86
2023/11/28 00:19:45;;;;;;;18.67;10.73;;;;;;;;;;5003508;28;20120;-84
2023/11/28 00:22:14;;;;;;;24.87;11.00;;;;;;;;;;5025530;28;20110;-85
2023/11/28 00:24:40;;;;;;;22.10;11.73;;;;;;;;;;5026813;28;20029;-85
2023/11/28 00:27:08;;;;;;;24.67;10.40;;;;;;;;;;5033518;28;20030;-86
2023/11/28 00:29:34;;;;;;;25.17;11.80;;;;;;;;;;5012955;28;20117;-85
2023/11/28 00:32:00;;;;;;;22.63;11.40;;;;;;;;;;5015539;28;20517;-85
2023/11/28 00:34:26;;;;;;;22.90;10.87;;;;;;;;;;5016022;28;20508;-81
2023/11/28 00:36:53;;;;;;;21.27;10.97;;;;;;;;;;5027931;28;20355;-83
2023/11/28 00:39:19;;;;;;;22.80;10.30;;;;;;;;;;5029800;28;20271;-85
2023/11/28 00:41:45;;;;;;;19.30;10.07;;;;;;;;;;5033230;28;20029;-84
2023/11/28 00:44:11;;;;;;;20.60;10.20;;;;;;;;;;5031068;28;20059;-88
2023/11/28 00:46:43;;;;;;;16.83;9.73;;;;;;;;;;5011949;28;20275;-86
2023/11/28 00:49:12;;;;;;;20.00;9.63;;;;;;;;;;5013005;28;20033;-84
2023/11/28 00:51:41;;;;;;;17.37;8.67;;;;;;;;;;5013103;28;20029;-84
2023/11/28 00:54:07;;;;;;;13.47;7.83;;;;;;;;;;5014920;28;20505;-83
2023/11/28 00:56:33;;;;;;;13.90;8.33;;;;;;;;;;5012777;28;20029;-84
2023/11/28 00:58:59;;;;;;;11.83;6.97;;;;;;;;;;5014542;28;20033;-85
2023/11/28 01:01:25;;;;;;;13.43;7.63;;;;;;;;;;5014845;28;20111;-87
2023/11/28 01:03:51;;;;;;;14.60;8.83;;;;;;;;;;5015208;28;20048;-82
2023/11/28 01:06:19;;;;;;;13.73;7.07;;;;;;;;;;5030050;28;20087;-81
2023/11/28 01:08:45;;;;;;;17.97;8.67;;;;;;;;;;5015346;28;20057;-88
2023/11/28 01:11:11;;;;;;;14.83;7.87;;;;;;;;;;5015459;28;20095;-88
2023/11/28 01:13:38;;;;;;;13.07;7.63;;;;;;;;;;5030883;28;20453;-85
2023/11/28 01:16:04;;;;;;;13.00;7.67;;;;;;;;;;5015503;28;20120;-86
2023/11/28 01:18:33;;;;;;;11.73;6.80;;;;;;;;;;5014682;28;20033;-89
2023/11/28 01:20:59;;;;;;;12.30;6.67;;;;;;;;;;5012868;28;20128;-84
2023/11/28 01:23:25;;;;;;;13.50;7.50;;;;;;;;;;5015102;28;20218;-82
2023/11/28 01:25:51;;;;;;;14.03;7.10;;;;;;;;;;5014474;28;20115;-86
2023/11/28 01:28:17;;;;;;;12.73;6.90;;;;;;;;;;5013866;28;20744;-88
2023/11/28 01:30:43;;;;;;;12.53;7.10;;;;;;;;;;5014093;28;20041;-82
2023/11/28 01:33:09;;;;;;;15.27;7.73;;;;;;;;;;5014637;28;20468;-85
2023/11/28 01:35:37;;;;;;;16.40;8.63;;;;;;;;;;5014531;28;20231;-86
2023/11/28 01:38:04;;;;;;;15.07;8.23;;;;;;;;;;5029301;28;20389;-86
2023/11/28 01:40:30;;;;;;;13.77;7.87;;;;;;;;;;5013188;28;20276;-83
2023/11/28 01:42:56;;;;;;;11.03;7.00;;;;;;;;;;5013112;28;20287;-88
2023/11/28 01:45:22;;;;;;;14.83;8.13;;;;;;;;;;5015380;28;20276;-88
2023/11/28 01:47:55;;;;;;;14.40;8.13;;;;;;;;;;5016665;28;20377;-85
2023/11/28 01:50:21;;;;;;;15.75;8.63;;;;;;;;;;5017509;28;20040;-87
2023/11/28 01:52:48;;;;;;;14.90;8.97;;;;;;;;;;5018152;28;20076;-87
2023/11/28 01:55:14;;;;;;;14.83;8.77;;;;;;;;;;5016689;28;20087;-84
2023/11/28 01:57:45;;;;;;;15.17;9.27;;;;;;;;;;5033794;28;20276;-86
2023/11/28 02:00:12;;;;;;;13.77;9.00;;;;;;;;;;5033187;28;20287;-87
2023/11/28 02:02:38;;;;;;;15.73;8.93;;;;;;;;;;5016439;28;20730;-87
2023/11/28 02:05:04;;;;;;;14.47;8.60;;;;;;;;;;5017823;28;20068;-87
2023/11/28 02:07:30;;;;;;;16.43;10.10;;;;;;;;;;5017661;28;20446;-82
2023/11/28 02:09:56;;;;;;;11.37;6.80;;;;;;;;;;5017123;28;20025;-85
2023/11/28 02:12:25;;;;;;;12.43;8.33;;;;;;;;;;5034579;28;20037;-86
2023/11/28 02:14:51;;;;;;;12.63;7.80;;;;;;;;;;5018117;28;20033;-88
2023/11/28 02:17:18;;;;;;;11.33;7.53;;;;;;;;;;5017314;28;20037;-88
2023/11/28 02:19:47;;;;;;;10.50;6.73;;;;;;;;;;4999801;28;20338;-85
2023/11/28 02:22:13;;;;;;;12.07;7.43;;;;;;;;;;5016243;28;20318;-82
2023/11/28 02:24:41;;;;;;;14.13;7.43;;;;;;;;;;5017924;28;20040;-88
2023/11/28 02:27:07;;;;;;;9.30;6.17;;;;;;;;;;5017100;28;20022;-85
2023/11/28 02:29:33;;;;;;;9.60;6.30;;;;;;;;;;5033148;28;20030;-86
2023/11/28 02:32:01;;;;;;;13.00;7.50;;;;;;;;;;5016985;28;20049;-83
2023/11/28 02:34:27;;;;;;;12.17;7.87;;;;;;;;;;5015979;28;20033;-83
2023/11/28 02:36:53;;;;;;;11.97;7.13;;;;;;;;;;5016439;28;20410;-86
2023/11/28 02:39:19;;;;;;;8.77;6.17;;;;;;;;;;5017687;28;20025;-82
2023/11/28 02:41:45;;;;;;;9.57;6.23;;;;;;;;;;5016455;28;20461;-85
2023/11/28 02:44:12;;;;;;;10.30;6.27;;;;;;;;;;5017711;28;20033;-87
2023/11/28 02:46:37;;;;;;;7.23;5.33;;;;;;;;;;5018551;28;20124;-82
2023/11/28 02:49:03;;;;;;;7.93;5.20;;;;;;;;;;5017294;28;20108;-84
2023/11/28 02:51:31;;;;;;;6.70;5.80;;;;;;;;;;5017395;28;20021;-84
2023/11/28 02:53:59;;;;;;;7.57;5.67;;;;;;;;;;5016862;28;20464;-86
2023/11/28 02:56:25;;;;;;;6.67;5.20;;;;;;;;;;5030044;28;20122;-86
2023/11/28 02:58:53;;;;;;;8.17;5.80;;;;;;;;;;5014796;28;20068;-83
2023/11/28 03:01:21;;;;;;;7.00;5.37;;;;;;;;;;5033091;28;20438;-82
2023/11/28 03:03:53;;;;;;;5.90;4.67;;;;;;;;;;5017472;28;20021;-88
2023/11/28 03:06:19;;;;;;;4.57;3.70;;;;;;;;;;5033259;28;20433;-84
2023/11/28 03:08:51;;;;;;;5.97;4.33;;;;;;;;;;5029617;28;20280;-86
2023/11/28 03:11:17;;;;;;;6.13;4.70;;;;;;;;;;5017068;28;20037;-89
2023/11/28 03:13:43;;;;;;;5.03;3.90;;;;;;;;;;5033748;28;20040;-84
2023/11/28 03:16:10;;;;;;;5.17;4.60;;;;;;;;;;5033665;28;20280;-83
2023/11/28 03:18:36;;;;;;;6.63;4.70;;;;;;;;;;5017193;28;20492;-85
2023/11/28 03:21:02;;;;;;;5.23;4.20;;;;;;;;;;5016772;28;20311;-87
2023/11/28 03:23:28;;;;;;;5.60;4.57;;;;;;;;;;5029130;28;20100;-87
2023/11/28 03:25:54;;;;;;;4.70;4.00;;;;;;;;;;5016766;28;20036;-87
2023/11/28 03:28:19;;;;;;;5.57;4.47;;;;;;;;;;5015917;28;20408;-83
2023/11/28 03:30:48;;;;;;;5.10;4.30;;;;;;;;;;5010090;28;20084;-86
2023/11/28 03:33:14;;;;;;;5.60;4.30;;;;;;;;;;4994347;28;20045;-87
2023/11/28 03:35:40;;;;;;;5.17;4.37;;;;;;;;;;5009933;28;20568;-87
2023/11/28 03:38:07;;;;;;;5.17;4.67;;;;;;;;;;4993421;28;20054;-83
2023/11/28 03:40:33;;;;;;;5.53;4.97;;;;;;;;;;4995970;28;20185;-84
2023/11/28 03:42:59;;;;;;;5.47;4.57;;;;;;;;;;4994606;28;20280;-83
2023/11/28 03:45:25;;;;;;;4.67;4.17;;;;;;;;;;4990901;28;20042;-83
2023/11/28 03:47:52;;;;;;;5.60;4.57;;;;;;;;;;5011853;28;20510;-81
2023/11/28 03:50:20;;;;;;;6.23;5.17;;;;;;;;;;5006194;28;20131;-86
2023/11/28 03:52:46;;;;;;;7.73;5.43;;;;;;;;;;4988993;28;20971;-84
2023/11/28 03:55:21;;;;;;;8.13;6.03;;;;;;;;;;4993670;28;20333;-83
2023/11/28 03:57:46;;;;;;;7.63;5.90;;;;;;;;;;4991920;28;20119;-86
2023/11/28 04:00:14;;;;;;;7.10;5.77;;;;;;;;;;4993542;28;20398;-82
2023/11/28 04:02:40;;;;;;;8.17;5.80;;;;;;;;;;5010703;28;20946;-83
2023/11/28 04:05:08;;;;;;;7.43;6.40;;;;;;;;;;5014478;28;20279;-87
2023/11/28 04:07:34;;;;;;;8.83;6.53;;;;;;;;;;4971658;28;20050;-85
2023/11/28 04:10:00;;;;;;;8.23;6.00;;;;;;;;;;4956036;28;20042;-80
2023/11/28 04:12:26;;;;;;;8.03;6.53;;;;;;;;;;4955255;28;20961;-87
2023/11/28 04:14:52;;;;;;;7.93;6.33;;;;;;;;;;4955478;28;20369;-84
2023/11/28 04:17:21;;;;;;;8.37;6.43;;;;;;;;;;4954930;28;20436;-83
2023/11/28 04:19:47;;;;;;;8.17;6.33;;;;;;;;;;4960215;28;21753;-84
2023/11/28 04:22:13;;;;;;;8.57;7.00;;;;;;;;;;4956502;28;20038;-82
2023/11/28 04:24:40;;;;;;;12.10;9.47;;;;;;;;;;4954630;28;20288;-82
2023/11/28 04:27:06;;;;;;;11.93;9.03;;;;;;;;;;4954735;28;20035;-84
2023/11/28 04:29:32;;;;;;;13.77;9.93;;;;;;;;;;4954959;28;20147;-83
2023/11/28 04:31:58;;;;;;;11.53;8.80;;;;;;;;;;4955721;28;20365;-83
2023/11/28 04:34:24;;;;;;;12.13;9.00;;;;;;;;;;4955782;28;20990;-85
2023/11/28 04:36:51;;;;;;;12.97;10.17;;;;;;;;;;4954524;28;20062;-84
2023/11/28 04:39:17;;;;;;;12.70;9.63;;;;;;;;;;5001849;28;20057;-83
2023/11/28 04:41:43;;;;;;;14.03;11.33;;;;;;;;;;5012239;28;20021;-83
2023/11/28 04:44:09;;;;;;;13.77;10.80;;;;;;;;;;5011808;28;20111;-86
2023/11/28 04:46:35;;;;;;;12.90;10.43;;;;;;;;;;5016492;28;20049;-85
2023/11/28 04:49:01;;;;;;;16.80;12.30;;;;;;;;;;5018033;28;20591;-83
2023/11/28 04:51:27;;;;;;;13.83;11.10;;;;;;;;;;5027948;28;20108;-85
2023/11/28 04:53:53;;;;;;;15.23;11.63;;;;;;;;;;5014736;28;20120;-85
2023/11/28 04:56:19;;;;;;;12.70;10.40;;;;;;;;;;5023699;28;20044;-82
2023/11/28 04:58:45;;;;;;;13.23;10.70;;;;;;;;;;5028313;28;20025;-86
2023/11/28 05:01:11;;;;;;;11.77;10.03;;;;;;;;;;5013209;28;20022;-84
2023/11/28 05:03:37;;;;;;;13.40;9.97;;;;;;;;;;5017365;28;20449;-86
2023/11/28 05:06:03;;;;;;;12.63;9.83;;;;;;;;;;5009392;28;20064;-82
2023/11/28 05:08:29;;;;;;;12.87;10.17;;;;;;;;;;5011517;28;20029;-83
2023/11/28 05:10:55;;;;;;;14.33;10.90;;;;;;;;;;5017567;28;20025;-83
2023/11/28 05:13:21;;;;;;;11.50;8.80;;;;;;;;;;5011715;28;20033;-82
2023/11/28 05:15:47;;;;;;;12.10;10.07;;;;;;;;;;5009245;28;20373;-83
2023/11/28 05:18:13;;;;;;;12.03;9.83;;;;;;;;;;5017770;28;20037;-83
2023/11/28 05:20:38;;;;;;;12.77;10.03;;;;;;;;;;5002141;28;20636;-82
2023/11/28 05:23:05;;;;;;;13.57;11.03;;;;;;;;;;5010766;28;20036;-84
2023/11/28 05:25:33;;;;;;;12.80;10.43;;;;;;;;;;5013225;28;20029;-83
2023/11/28 05:27:59;;;;;;;15.37;11.33;;;;;;;;;;5034300;28;20299;-83
2023/11/28 05:30:26;;;;;;;12.67;10.70;;;;;;;;;;5021373;28;20393;-83
2023/11/28 05:32:52;;;;;;;16.00;12.07;;;;;;;;;;5014584;28;20033;-82
2023/11/28 05:35:18;;;;;;;12.27;10.07;;;;;;;;;;5021434;28;20437;-81
2023/11/28 05:37:44;;;;;;;16.27;11.30;;;;;;;;;;5021235;28;20030;-85
2023/11/28 05:40:13;;;;;;;14.97;12.00;;;;;;;;;;5038339;28;20029;-86
2023/11/28 05:42:42;;;;;;;15.73;12.37;;;;;;;;;;5021106;28;20460;-83
2023/11/28 05:45:08;;;;;;;13.40;10.90;;;;;;;;;;5036419;28;20045;-83
2023/11/28 05:47:34;;;;;;;13.60;10.93;;;;;;;;;;5021021;28;20624;-83
2023/11/28 05:50:00;;;;;;;15.90;11.77;;;;;;;;;;5010006;28;20335;-88
2023/11/28 05:52:26;;;;;;;15.57;12.47;;;;;;;;;;5033240;28;20067;-83
2023/11/28 05:54:52;;;;;;;16.33;12.60;;;;;;;;;;5012675;28;20038;-83
2023/11/28 05:57:19;;;;;;;17.43;12.23;;;;;;;;;;5014805;28;20325;-82
2023/11/28 05:59:45;;;;;;;16.37;12.00;;;;;;;;;;5023085;28;20033;-84
2023/11/28 06:02:11;;;;;;;15.77;11.13;;;;;;;;;;5009050;28;20026;-82
2023/11/28 06:04:39;;;;;;;13.70;10.33;;;;;;;;;;5016203;28;20037;-84
2023/11/28 06:07:06;;;;;;;14.87;10.80;;;;;;;;;;5018567;28;20025;-83
2023/11/28 06:09:31;;;;;;;16.77;12.13;;;;;;;;;;5032701;28;20036;-81
2023/11/28 06:11:58;;;;;;;17.80;11.83;;;;;;;;;;5019180;28;20033;-86
2023/11/28 06:14:24;;;;;;;17.70;12.03;;;;;;;;;;5015687;28;20022;-85
2023/11/28 06:16:50;;;;;;;17.17;12.20;;;;;;;;;;5020751;28;20025;-83
2023/11/28 06:19:19;;;;;;;16.60;11.57;;;;;;;;;;5017016;28;20040;-81
2023/11/28 06:21:47;;;;;;;16.83;11.13;;;;;;;;;;5030735;28;20029;-81
2023/11/28 06:24:14;;;;;;;13.73;10.23;;;;;;;;;;5017360;28;20304;-82
2023/11/28 06:26:40;;;;;;;13.27;9.87;;;;;;;;;;5017537;28;20091;-80
2023/11/28 06:29:09;;;;;;;14.37;11.00;;;;;;;;;;5017333;28;20756;-82
2023/11/28 06:31:35;;;;;;;15.50;10.83;;;;;;;;;;5016484;28;20108;-85
2023/11/28 06:34:01;;;;;;;12.37;9.13;;;;;;;;;;5017102;28;20128;-83
2023/11/28 06:36:27;;;;;;;16.67;11.03;;;;;;;;;;5013243;28;20091;-81
2023/11/28 06:38:55;;;;;;;15.30;11.40;;;;;;;;;;5028650;28;20276;-83
2023/11/28 06:41:21;;;;;;;15.30;11.40;;;;;;;;;;5015623;28;20121;-80
2023/11/28 06:43:47;;;;;;;13.63;10.13;;;;;;;;;;5029473;28;20307;-83
2023/11/28 06:46:15;;;;;;;16.73;10.50;;;;;;;;;;5016576;28;20316;-80
2023/11/28 06:48:43;;;;;;;13.70;10.17;;;;;;;;;;5016402;28;20033;-88
2023/11/28 06:51:10;;;;;;;16.50;10.77;;;;;;;;;;5033663;28;20029;-81
2023/11/28 06:53:36;;;;;;;16.70;11.47;;;;;;;;;;5017344;28;20600;-81
2023/11/28 06:56:06;;;;;;;16.33;11.47;;;;;;;;;;5016424;28;20107;-80
2023/11/28 06:58:32;;;;;;;16.63;11.03;;;;;;;;;;5015739;28;20352;-83
2023/11/28 07:00:58;;;;;;;15.77;11.03;;;;;;;;;;5014492;28;20311;-82
2023/11/28 07:03:24;;;;;;;17.50;11.97;;;;;;;;;;5017033;28;20018;-80
2023/11/28 07:05:50;;;;;;;14.13;11.53;;;;;;;;;;5034636;28;20303;-86
2023/11/28 07:08:16;;;;;;;19.43;11.67;;;;;;;;;;5016272;28;20279;-81
2023/11/28 07:10:42;;;;;;;14.93;11.37;;;;;;;;;;5016672;28;20674;-79
2023/11/28 07:13:08;;;;;;;14.03;10.97;;;;;;;;;;5016418;28;20044;-80
2023/11/28 07:15:34;;;;;;;10.37;7.53;;;;;;;;;;5031075;28;20123;-79
2023/11/28 07:18:00;;;;;;;17.10;10.97;;;;;;;;;;5016843;28;20079;-82
2023/11/28 07:20:28;;;;;;;17.83;10.33;;;;;;;;;;5015459;28;20034;-82
2023/11/28 07:22:54;;;;;;;16.10;11.10;;;;;;;;;;5033923;28;20112;-81
2023/11/28 07:25:20;;;;;;;17.27;10.83;;;;;;;;;;5016006;28;20280;-81
2023/11/28 07:27:46;;;;;;;17.57;11.63;;;;;;;;;;5014957;28;20292;-80
2023/11/28 07:30:12;;;;;;;15.47;11.40;;;;;;;;;;5015396;28;20069;-81
2023/11/28 07:32:38;;;;;;;15.53;11.27;;;;;;;;;;5013789;28;20121;-81
2023/11/28 07:35:05;;;;;;;17.30;10.73;;;;;;;;;;5016018;28;20653;-79
2023/11/28 07:37:31;;;;;;;14.73;10.47;;;;;;;;;;5015938;28;20033;-81
2023/11/28 07:39:57;;;;;;;14.40;11.00;;;;;;;;;;5032792;28;20365;-78
2023/11/28 07:42:23;;;;;;;17.17;10.73;;;;;;;;;;5031927;28;20087;-79
2023/11/28 07:44:49;;;;;;;14.30;9.67;;;;;;;;;;5014551;28;20516;-78
2023/11/28 07:47:16;;;;;;;14.60;9.57;;;;;;;;;;5015340;28;20033;-79
2023/11/28 07:49:42;;;;;;;12.43;8.57;;;;;;;;;;5036209;28;20438;-79
2023/11/28 07:52:09;;;;;;;10.70;8.23;;;;;;;;;;5015036;28;20276;-81
2023/11/28 07:54:35;;;;;;;10.70;7.90;;;;;;;;;;5015471;28;20268;-79
2023/11/28 07:57:01;;;;;;;12.33;8.00;;;;;;;;;;5033128;28;20284;-83
2023/11/28 07:59:27;;;;;;;12.00;8.23;;;;;;;;;;5015345;28;20280;-79
2023/11/28 08:01:53;;;;;;;11.10;8.37;;;;;;;;;;5031253;28;20032;-79
2023/11/28 08:04:19;;;;;;;11.37;7.97;;;;;;;;;;5016622;28;20021;-78
2023/11/28 08:06:45;;;;;;;10.27;8.10;;;;;;;;;;5013812;28;20029;-85
2023/11/28 08:09:12;;;;;;;9.87;7.03;;;;;;;;;;5015200;28;20034;-80
2023/11/28 08:11:38;;;;;;;11.10;6.97;;;;;;;;;;5015780;28;20065;-80
2023/11/28 08:14:04;;;;;;;9.53;6.73;;;;;;;;;;5012515;28;20295;-80
2023/11/28 08:16:31;;;;;;;8.67;6.67;;;;;;;;;;5013716;28;20167;-79
2023/11/28 08:18:57;;;;;;;10.90;7.17;;;;;;;;;;5013960;28;20033;-79
2023/11/28 08:21:25;;;;;;;8.50;6.03;;;;;;;;;;5015766;28;20713;-80
2023/11/28 08:23:51;;;;;;;10.57;6.43;;;;;;;;;;5014211;28;20031;-79
2023/11/28 08:26:19;;;;;;;10.27;6.37;;;;;;;;;;5013925;28;20272;-81
2023/11/28 08:28:45;;;;;;;9.57;6.73;;;;;;;;;;5011963;28;20125;-80
2023/11/28 08:31:11;;;;;;;10.80;5.40;;;;;;;;;;5012338;28;20299;-81
2023/11/28 08:33:37;;;;;;;12.53;5.37;;;;;;;;;;5014811;28;20442;-79
2023/11/28 08:36:05;;;;;;;10.17;4.80;;;;;;;;;;5012863;28;20287;-80
2023/11/28 08:38:31;;;;;;;7.43;5.30;;;;;;;;;;5016502;28;20021;-80
2023/11/28 08:40:57;;;;;;;6.43;4.63;;;;;;;;;;5014713;28;20025;-78
2023/11/28 08:43:23;;;;;;;7.10;4.70;;;;;;;;;;5012917;28;20272;-82
2023/11/28 08:45:49;;;;;;;5.90;4.73;;;;;;;;;;5028836;28;20033;-79
2023/11/28 08:48:15;;;;;;;6.57;4.77;;;;;;;;;;5013921;28;20349;-78
2023/11/28 08:50:42;;;;;;;8.80;5.43;;;;;;;;;;5014751;28;20942;-80
2023/11/28 08:53:08;;;;;;;5.83;4.73;;;;;;;;;;5014415;28;20052;-84
2023/11/28 08:55:34;;;;;;;5.63;4.07;;;;;;;;;;5017671;28;20752;-81
2023/11/28 08:58:00;;;;;;;5.87;4.03;;;;;;;;;;5013443;28;20279;-82
2023/11/28 09:00:26;;;;;;;4.47;3.37;;;;;;;;;;5010086;28;20029;-83
2023/11/28 09:02:52;;;;;;;4.77;3.50;;;;;;;;;;5016497;28;20346;-81
2023/11/28 09:05:21;;;;;;;4.10;3.50;;;;;;;;;;5009589;28;20288;-79
2023/11/28 09:07:49;;;;;;;4.57;3.37;;;;;;;;;;5027804;28;20094;-80
2023/11/28 09:10:17;;;;;;;4.20;3.23;;;;;;;;;;5022818;28;20029;-80
2023/11/28 09:12:47;;;;;;;3.63;3.03;;;;;;;;;;5013610;28;20359;-81
2023/11/28 09:15:17;;;;;;;8.83;3.43;;;;;;;;;;5012955;28;20030;-81
2023/11/28 09:17:44;;;;;;;3.23;2.60;;;;;;;;;;5013450;28;20040;-80
2023/11/28 09:20:10;;;;;;;2.70;2.20;;;;;;;;;;5014578;28;20280;-81
2023/11/28 09:22:36;;;;;;;6.13;2.37;;;;;;;;;;5026423;28;20272;-80
2023/11/28 09:25:03;;;;;;;2.73;2.47;;;;;;;;;;5014434;28;20283;-80
2023/11/28 09:27:29;;;;;;;3.77;2.57;;;;;;;;;;5012512;28;20732;-78
2023/11/28 09:29:55;;;;;;;3.07;2.47;;;;;;;;;;5014855;28;20371;-79
2023/11/28 09:32:21;;;;;;;3.73;2.93;;;;;;;;;;5013982;28;20032;-80
2023/11/28 09:34:47;;;;;;;3.87;2.53;;;;;;;;;;5014208;28;20025;-80
2023/11/28 09:37:13;;;;;;;4.40;3.10;;;;;;;;;;5013914;28;20035;-81
2023/11/28 09:39:39;;;;;;;3.77;2.93;;;;;;;;;;5008974;28;20330;-80
2023/11/28 09:42:10;;;;;;;3.47;2.67;;;;;;;;;;5014424;28;20268;-79
2023/11/28 09:44:36;;;;;;;4.23;2.67;;;;;;;;;;5014271;28;20183;-78
2023/11/28 09:47:09;;;;;;;2.97;2.60;;;;;;;;;;5014002;28;20664;-81
2023/11/28 09:49:42;;;;;;;4.10;3.03;;;;;;;;;;5008551;28;20280;-80
2023/11/28 09:52:15;;;;;;;7.60;3.03;;;;;;;;;;5031516;28;20287;-81
2023/11/28 09:54:41;;;;;;;4.60;3.33;;;;;;;;;;5025000;28;20276;-80
2023/11/28 09:57:08;;;;;;;3.80;3.17;;;;;;;;;;5012244;28;20037;-81
2023/11/28 09:59:38;;;;;;;4.43;3.30;;;;;;;;;;5029809;28;20171;-80
2023/11/28 10:02:05;;;;;;;2.80;2.30;;;;;;;;;;5029324;28;20025;-78
2023/11/28 10:04:31;;;;;;;3.17;2.50;;;;;;;;;;5013635;28;20025;-81
2023/11/28 10:07:01;;;;;;;3.20;2.60;;;;;;;;;;5013651;28;20028;-81
2023/11/28 10:09:27;;;;;;;3.03;2.37;;;;;;;;;;5016506;28;20303;-80
2023/11/28 10:11:54;;;;;;;4.87;2.77;;;;;;;;;;5015292;28;20046;-81
2023/11/28 10:14:20;;;;;;;3.77;2.90;;;;;;;;;;5013592;28;20037;-82
2023/11/28 10:16:49;;;;;;;3.50;2.80;;;;;;;;;;5018011;28;20276;-82
2023/11/28 10:19:17;;;;;;;5.17;3.13;;;;;;;;;;5033216;28;20017;-82
2023/11/28 10:21:44;;;;;;;4.80;2.70;;;;;;;;;;5034643;28;20029;-80
2023/11/28 10:24:10;;;;;;;3.43;2.70;;;;;;;;;;5016859;28;20039;-80
2023/11/28 10:26:39;;;;;;;6.90;2.53;;;;;;;;;;5029722;28;20069;-82
2023/11/28 10:29:06;;;;;;;3.07;2.37;;;;;;;;;;5017436;28;20033;-80
2023/11/28 10:31:39;;;;;;;5.47;2.43;;;;;;;;;;5010532;28;20041;-80
2023/11/28 10:34:08;;;;;;;12.73;3.38;;;;;;;;;;5035881;28;20076;-79
2023/11/28 10:36:40;;;;;;;6.40;2.80;;;;;;;;;;5033054;28;20044;-78
2023/11/28 10:39:08;;;;;;;5.78;2.25;;;;;;;;;;5033386;28;20335;-81
2023/11/28 10:41:34;;;;;;;12.30;2.37;;;;;;;;;;5013285;28;20037;-81
2023/11/28 10:44:00;;;;;;;4.03;2.40;;;;;;;;;;5019727;28;20124;-80
2023/11/28 10:46:28;;;;;;;8.57;2.50;;;;;;;;;;5009025;28;20052;-82
2023/11/28 10:48:55;;;;;;;5.00;2.20;;;;;;;;;;5007826;28;20041;-79
2023/11/28 10:51:24;;;;;;;13.93;2.43;;;;;;;;;;5019994;28;20032;-81
2023/11/28 10:53:56;;;;;;;5.87;2.07;;;;;;;;;;5029977;28;20088;-78
2023/11/28 10:56:22;;;;;;;2.13;1.70;;;;;;;;;;5033182;28;20030;-78
2023/11/28 10:58:48;;;;;;;2.77;2.10;;;;;;;;;;5019130;28;20357;-80
2023/11/28 11:01:16;;;;;;;3.70;2.60;;;;;;;;;;5019000;28;20089;-80
2023/11/28 11:03:42;;;;;;;1.80;1.40;;;;;;;;;;5019044;28;20021;-80
2023/11/28 11:06:08;;;;;;;2.77;1.43;;;;;;;;;;5027984;28;20545;-80
2023/11/28 11:08:35;;;;;;;5.90;2.00;;;;;;;;;;5030819;28;20105;-83
2023/11/28 11:11:01;;;;;;;3.30;1.60;;;;;;;;;;5008183;28;20578;-77
2023/11/28 11:13:36;;;;;;;3.63;1.83;;;;;;;;;;5010236;28;20026;-80
2023/11/28 11:16:31;;;;;;;2.77;1.90;;;;;;;;;;5013591;28;20029;-82
2023/11/28 11:19:00;;;;;;;2.30;1.90;;;;;;;;;;5006911;28;20037;-82
2023/11/28 11:21:49;;;;;;;2.43;1.60;;;;;;;;;;5016713;28;20120;-81
2023/11/28 11:24:18;;;;;;;3.57;1.50;;;;;;;;;;5009082;28;20045;-81
2023/11/28 11:26:50;;;;;;;2.97;1.40;;;;;;;;;;5027578;28;20029;-81
2023/11/28 11:29:26;;;;;;;2.60;1.70;;;;;;;;;;5016881;28;20038;-81
2023/11/28 11:31:52;;;;;;;2.93;1.67;;;;;;;;;;5012917;28;20041;-82
2023/11/28 11:34:34;;;;;;;3.77;1.80;;;;;;;;;;5011602;28;20025;-79
2023/11/28 11:37:06;;;;;;;1.90;1.50;;;;;;;;;;5022116;28;20121;-80
2023/11/28 11:39:34;;;;;;;1.38;1.20;;;;;;;;;;5021829;28;20376;-81
2023/11/28 11:42:00;;;;;;;2.13;1.77;;;;;;;;;;5008278;28;20045;-80
2023/11/28 11:44:26;;;;;;;2.97;1.77;;;;;;;;;;5006130;28;20374;-80
2023/11/28 11:46:52;;;;;;;1.93;1.50;;;;;;;;;;5018566;28;20030;-80
2023/11/28 11:49:18;;;;;;;3.00;2.00;;;;;;;;;;5018450;28;20060;-81
2023/11/28 11:51:44;;;;;;;1.57;1.47;;;;;;;;;;5018193;28;20040;-80
2023/11/28 11:54:11;;;;;;;2.53;1.60;;;;;;;;;;5018793;28;20036;-84
2023/11/28 11:56:37;;;;;;;2.63;1.60;;;;;;;;;;5018521;28;20485;-82
2023/11/28 11:59:04;;;;;;;1.37;1.27;;;;;;;;;;5014952;28;20370;-81
2023/11/28 12:01:31;;;;;;;1.53;1.13;;;;;;;;;;5012264;28;20040;-80
2023/11/28 12:04:01;;;;;;;3.67;1.60;;;;;;;;;;5011111;28;20022;-80
2023/11/28 12:06:27;;;;;;;4.80;1.60;;;;;;;;;;5010918;28;20461;-81
2023/11/28 12:08:59;;;;;;;1.93;1.23;;;;;;;;;;5016167;28;20029;-80
2023/11/28 12:11:25;;;;;;;;;;;;;;;;;;5011640;28;20034;-80
2023/11/28 12:13:52;;;;;;;32.43;5.43;;;;;;;;;;5018114;28;19915;-79
2023/11/28 12:16:18;;;;;;;23.77;2.80;;;;;;;;;;5009710;28;20505;-79
2023/11/28 12:18:44;;;;;;;3.10;1.30;;;;;;;;;;5015613;28;20030;-79
2023/11/28 12:21:10;;;;;;;7.47;1.63;;;;;;;;;;5010695;28;20048;-79
2023/11/28 12:23:36;;;;;;;5.83;1.87;;;;;;;;;;5017346;28;20092;-79
2023/11/28 12:26:02;;;;;;;5.23;1.67;;;;;;;;;;5016771;28;20049;-79
2023/11/28 12:28:28;;;;;;;3.00;1.57;;;;;;;;;;5011759;28;20033;-79
2023/11/28 12:30:55;;;;;;;3.77;2.20;;;;;;;;;;5015334;28;20029;-78
2023/11/28 12:33:23;;;;;;;16.87;1.83;;;;;;;;;;5015869;28;20048;-80
2023/11/28 12:35:49;;;;;;;27.27;5.40;;;;;;;;;;5015166;28;20025;-79
2023/11/28 12:38:17;;;;;;;14.43;2.00;;;;;;;;;;5026956;28;20056;-79
2023/11/28 12:40:46;;;;;;;2.67;2.00;;;;;;;;;;5015314;28;20476;-81
2023/11/28 12:43:22;;;;;;;5.23;2.23;;;;;;;;;;5014571;28;20453;-79
2023/11/28 12:45:51;;;;;;;2.70;2.00;;;;;;;;;;5032788;28;20070;-78
2023/11/28 12:48:18;;;;;;;3.87;2.37;;;;;;;;;;5026575;28;20057;-80
2023/11/28 12:50:44;;;;;;;4.70;2.03;;;;;;;;;;5014996;28;20176;-79
2023/11/28 12:53:21;;;;;;;5.13;2.17;;;;;;;;;;5015210;28;20041;-82
2023/11/28 12:55:47;;;;;;;2.60;1.70;;;;;;;;;;5031535;28;20029;-80
2023/11/28 12:58:13;;;;;;;8.83;2.47;;;;;;;;;;5015828;28;20056;-81
2023/11/28 13:00:39;;;;;;;32.37;3.93;;;;;;;;;;5015413;28;20086;-79
2023/11/28 13:03:05;;;;;;;2.90;2.20;;;;;;;;;;5015011;28;20072;-79
2023/11/28 13:05:31;;;;;;;12.37;3.10;;;;;;;;;;5015075;28;20935;-81
2023/11/28 13:07:57;;;;;;;6.83;2.77;;;;;;;;;;5014824;28;20030;-78
2023/11/28 13:10:23;;;;;;;5.63;3.00;;;;;;;;;;5013899;28;20484;-79
2023/11/28 13:12:53;;;;;;;5.00;3.20;;;;;;;;;;5014575;28;20068;-80
2023/11/28 13:15:20;;;;;;;4.17;2.60;;;;;;;;;;5013739;28;20486;-80
2023/11/28 13:17:47;;;;;;;3.07;2.33;;;;;;;;;;5014743;28;20461;-78
2023/11/28 13:20:16;;;;;;;6.43;3.67;;;;;;;;;;5015168;28;20057;-79
2023/11/28 13:22:42;;;;;;;4.50;3.20;;;;;;;;;;5014384;28;20152;-82
2023/11/28 13:25:08;;;;;;;4.60;3.13;;;;;;;;;;5014255;28;20025;-78
2023/11/28 13:27:35;;;;;;;6.77;3.50;;;;;;;;;;5014878;28;20426;-79
2023/11/28 13:30:05;;;;;;;6.97;4.13;;;;;;;;;;5014582;28;20037;-80
2023/11/28 13:32:31;;;;;;;10.97;5.13;;;;;;;;;;5014129;28;20068;-79
2023/11/28 13:34:58;;;;;;;14.57;4.43;;;;;;;;;;5012955;28;20108;-80
2023/11/28 13:37:24;;;;;;;31.63;5.87;;;;;;;;;;5014558;28;20112;-78
2023/11/28 13:39:50;;;;;;;6.70;3.77;;;;;;;;;;5014999;28;20075;-78
2023/11/28 13:42:19;;;;;;;9.73;3.43;;;;;;;;;;5014817;28;20030;-79
2023/11/28 13:44:45;;;;;;;6.57;3.53;;;;;;;;;;5017792;28;20029;-79
2023/11/28 13:47:13;;;;;;;6.40;4.17;;;;;;;;;;5017174;28;20180;-80
2023/11/28 13:49:39;;;;;;;10.27;3.83;;;;;;;;;;5018305;28;20033;-80
2023/11/28 13:52:05;;;;;;;7.30;3.80;;;;;;;;;;5018223;28;20022;-79
2023/11/28 13:54:33;;;;;;;6.37;3.20;;;;;;;;;;5017159;28;20030;-79
2023/11/28 13:57:01;;;;;;;6.17;3.97;;;;;;;;;;5018094;28;20029;-79
2023/11/28 13:59:30;;;;;;;15.53;4.90;;;;;;;;;;5017583;28;20034;-81
2023/11/28 14:01:56;;;;;;;15.60;4.33;;;;;;;;;;5016482;28;20029;-78
2023/11/28 14:04:22;;;;;;;10.07;4.87;;;;;;;;;;5015045;28;20025;-80
2023/11/28 14:06:48;;;;;;;7.20;3.70;;;;;;;;;;5018657;28;20037;-80
2023/11/28 14:09:15;;;;;;;5.73;3.90;;;;;;;;;;5018343;28;20045;-78
2023/11/28 14:11:44;;;;;;;5.37;3.50;;;;;;;;;;5034554;28;20108;-81
2023/11/28 14:14:11;;;;;;;8.27;4.37;;;;;;;;;;5017635;28;20040;-82
2023/11/28 14:16:37;;;;;;;7.17;4.37;;;;;;;;;;5017802;28;20098;-80
2023/11/28 14:19:03;;;;;;;8.10;4.50;;;;;;;;;;5017000;28;20026;-80
2023/11/28 14:21:30;;;;;;;7.73;4.60;;;;;;;;;;5035735;28;20044;-81
2023/11/28 14:23:56;;;;;;;7.40;4.30;;;;;;;;;;5018118;28;20109;-81
2023/11/28 14:26:22;;;;;;;7.97;4.80;;;;;;;;;;5034067;28;20042;-81
2023/11/28 14:28:48;;;;;;;7.93;4.80;;;;;;;;;;5018594;28;20038;-81
2023/11/28 14:31:14;;;;;;;7.00;4.90;;;;;;;;;;5017222;28;20112;-80